createdAt,value
2022-11-15T00:02:15.556Z,19.57
2022-11-15T00:04:42.029Z,12.60
2022-11-15T00:07:08.599Z,14.13
2022-11-15T00:09:35.722Z,13.10
2022-11-15T00:12:02.215Z,16.87
2022-11-15T00:14:28.698Z,11.83
2022-11-15T00:16:55.188Z,18.97
2022-11-15T00:19:21.843Z,14.20
2022-11-15T00:21:48.383Z,12.27
2022-11-15T00:24:14.882Z,17.10
2022-11-15T00:26:41.354Z,12.90
2022-11-15T00:29:07.860Z,23.80
2022-11-15T00:31:34.353Z,13.73
2022-11-15T00:34:00.858Z,15.37
2022-11-15T00:36:27.368Z,18.57
2022-11-15T00:38:53.892Z,11.90
2022-11-15T00:41:20.382Z,13.13
2022-11-15T00:43:46.916Z,15.87
2022-11-15T00:46:13.464Z,15.80
2022-11-15T00:48:39.945Z,14.97
2022-11-15T00:51:06.439Z,24.57
2022-11-15T00:53:33.345Z,26.53
2022-11-15T00:56:00.146Z,20.23
2022-11-15T00:58:26.661Z,17.43
2022-11-15T01:00:53.219Z,17.63
2022-11-15T01:03:19.711Z,17.03
2022-11-15T01:05:46.231Z,17.27
2022-11-15T01:08:12.736Z,19.73
2022-11-15T01:10:39.353Z,23.80
2022-11-15T01:13:05.862Z,20.23
2022-11-15T01:15:32.384Z,24.20
2022-11-15T01:17:58.866Z,15.90
2022-11-15T01:20:25.337Z,19.17
2022-11-15T01:22:51.908Z,17.63
2022-11-15T01:25:18.393Z,16.70
2022-11-15T01:27:44.868Z,20.43
2022-11-15T01:30:11.432Z,18.13
2022-11-15T01:32:38.416Z,19.53
2022-11-15T01:35:04.959Z,25.70
2022-11-15T01:37:31.457Z,27.73
2022-11-15T01:39:57.965Z,17.53
2022-11-15T01:42:24.459Z,19.73
2022-11-15T01:44:50.935Z,21.43
2022-11-15T01:47:17.481Z,17.10
2022-11-15T01:49:44.021Z,21.70
2022-11-15T01:52:10.544Z,16.13
2022-11-15T01:54:37.026Z,22.70
2022-11-15T01:57:03.699Z,19.07
2022-11-15T01:59:30.201Z,21.43
2022-11-15T02:01:56.700Z,17.30
2022-11-15T02:04:23.181Z,17.60
2022-11-15T02:06:49.689Z,22.17
2022-11-15T02:09:16.244Z,25.63
2022-11-15T02:11:42.766Z,20.80
2022-11-15T02:14:09.237Z,16.57
2022-11-15T02:16:35.836Z,23.97
2022-11-15T02:19:02.342Z,19.80
2022-11-15T02:21:28.827Z,19.03
2022-11-15T02:23:55.340Z,13.50
2022-11-15T02:26:21.848Z,13.00
2022-11-15T02:28:48.319Z,14.03
2022-11-15T02:31:14.832Z,13.30
2022-11-15T02:33:41.353Z,20.57
2022-11-15T02:36:07.960Z,12.77
2022-11-15T02:38:34.489Z,14.20
2022-11-15T02:41:01.042Z,17.17
2022-11-15T02:43:47.401Z,17.97
2022-11-15T02:46:13.923Z,16.57
2022-11-15T02:48:40.436Z,13.80
2022-11-15T02:51:06.931Z,17.37
2022-11-15T02:53:33.642Z,17.47
2022-11-15T02:56:00.571Z,11.90
2022-11-15T02:58:27.131Z,16.77
2022-11-15T03:00:53.725Z,14.40
2022-11-15T03:03:20.240Z,16.10
2022-11-15T03:05:46.738Z,13.30
2022-11-15T03:08:13.229Z,12.47
2022-11-15T03:10:39.764Z,21.33
2022-11-15T03:13:06.253Z,15.40
2022-11-15T03:18:03.934Z,15.53
2022-11-15T03:20:30.405Z,13.63
2022-11-15T03:22:56.900Z,14.13
2022-11-15T03:25:23.379Z,10.80
2022-11-15T03:27:49.866Z,12.90
2022-11-15T03:30:16.322Z,15.70
2022-11-15T03:32:42.811Z,12.10
2022-11-15T03:35:09.317Z,10.43
2022-11-15T03:37:35.851Z,10.87
2022-11-15T03:40:02.324Z,12.73
2022-11-15T03:42:28.845Z,10.07
2022-11-15T03:44:55.349Z,10.40
2022-11-15T03:47:21.895Z,15.33
2022-11-15T03:49:48.426Z,7.20
2022-11-15T03:52:14.960Z,7.93
2022-11-15T03:54:41.435Z,7.70
2022-11-15T03:57:07.919Z,13.00
2022-11-15T03:59:34.417Z,11.33
2022-11-15T04:02:00.910Z,8.23
2022-11-15T04:04:27.385Z,9.80
2022-11-15T04:06:53.899Z,11.03
2022-11-15T04:09:20.470Z,11.13
2022-11-15T04:11:47.007Z,11.53
2022-11-15T04:14:13.485Z,12.37
2022-11-15T04:16:43.875Z,11.80
2022-11-15T04:19:29.236Z,13.60
2022-11-15T04:22:14.591Z,13.37
2022-11-15T04:24:41.100Z,13.50
2022-11-15T04:27:07.607Z,13.63
2022-11-15T04:29:37.193Z,14.37
2022-11-15T04:32:03.750Z,10.90
2022-11-15T04:34:30.261Z,17.03
2022-11-15T04:37:16.015Z,14.57
2022-11-15T04:39:42.559Z,13.10
2022-11-15T04:42:09.113Z,9.70
2022-11-15T04:44:35.577Z,13.73
2022-11-15T04:47:02.081Z,12.50
2022-11-15T04:49:28.600Z,12.93
2022-11-15T04:51:55.112Z,10.20
2022-11-15T04:54:21.685Z,13.53
2022-11-15T04:56:48.209Z,13.80
2022-11-15T04:59:14.670Z,10.63
2022-11-15T05:01:44.913Z,11.77
2022-11-15T05:04:20.848Z,8.43
2022-11-15T05:06:47.580Z,10.03
2022-11-15T05:09:14.758Z,10.57
2022-11-15T05:11:41.272Z,8.10
2022-11-15T05:14:07.743Z,7.80
2022-11-15T05:16:34.260Z,10.17
2022-11-15T05:19:00.758Z,12.63
2022-11-15T05:21:27.252Z,8.87
2022-11-15T05:23:53.715Z,9.03
2022-11-15T05:26:20.205Z,10.13
2022-11-15T05:28:46.686Z,8.17
2022-11-15T05:31:13.295Z,8.33
2022-11-15T05:33:39.779Z,14.30
2022-11-15T05:36:06.282Z,9.70
2022-11-15T05:38:32.756Z,6.87
2022-11-15T05:40:59.255Z,8.87
2022-11-15T05:43:25.812Z,8.50
2022-11-15T05:45:52.338Z,12.40
2022-11-15T05:48:18.819Z,9.90
2022-11-15T05:50:45.282Z,8.93
2022-11-15T05:53:11.736Z,6.90
2022-11-15T05:55:38.222Z,9.37
2022-11-15T05:58:04.758Z,8.40
2022-11-15T06:00:31.243Z,9.07
2022-11-15T06:02:57.718Z,9.03
2022-11-15T06:05:24.189Z,12.20
2022-11-15T06:07:50.707Z,14.20
2022-11-15T06:10:17.211Z,7.57
2022-11-15T06:12:43.698Z,7.00
2022-11-15T06:15:10.227Z,9.90
2022-11-15T06:17:36.727Z,7.10
2022-11-15T06:20:03.240Z,11.27
2022-11-15T06:22:29.725Z,7.17
2022-11-15T06:24:58.266Z,5.93
2022-11-15T06:27:26.724Z,6.17
2022-11-15T06:29:53.251Z,6.10
2022-11-15T06:32:19.766Z,5.60
2022-11-15T06:34:46.253Z,5.17
2022-11-15T06:37:12.815Z,4.00
2022-11-15T06:39:39.301Z,6.10
2022-11-15T06:42:05.822Z,4.10
2022-11-15T06:44:32.363Z,5.77
2022-11-15T06:46:58.842Z,5.70
2022-11-15T06:49:25.321Z,3.60
2022-11-15T06:51:51.810Z,4.97
2022-11-15T06:54:18.389Z,4.63
2022-11-15T06:56:44.928Z,10.20
2022-11-15T06:59:11.414Z,4.50
2022-11-15T07:01:37.914Z,3.70
2022-11-15T07:04:04.394Z,3.60
2022-11-15T07:06:30.903Z,3.90
2022-11-15T07:08:57.405Z,4.17
2022-11-15T07:11:23.895Z,3.20
2022-11-15T07:13:50.387Z,3.37
2022-11-15T07:16:16.870Z,2.70
2022-11-15T07:18:43.347Z,4.67
2022-11-15T07:21:09.867Z,3.23
2022-11-15T07:23:36.350Z,3.30
2022-11-15T07:26:03.232Z,3.07
2022-11-15T07:28:30.030Z,2.83
2022-11-15T07:30:56.830Z,2.23
2022-11-15T07:33:23.366Z,2.93
2022-11-15T07:35:49.865Z,2.90
2022-11-15T07:38:20.449Z,3.70
2022-11-15T07:40:47.348Z,3.43
2022-11-15T07:43:13.818Z,3.77
2022-11-15T07:45:40.319Z,5.20
2022-11-15T07:48:06.807Z,8.47
2022-11-15T07:50:33.273Z,8.27
2022-11-15T07:52:59.751Z,7.63
2022-11-15T07:55:26.248Z,3.93
2022-11-15T07:57:52.759Z,4.30
2022-11-15T08:00:19.239Z,3.73
2022-11-15T08:02:45.871Z,4.17
2022-11-15T08:05:12.386Z,5.53
2022-11-15T08:07:39.123Z,4.07
2022-11-15T08:10:06.836Z,3.73
2022-11-15T08:12:33.361Z,3.00
2022-11-15T08:14:59.850Z,6.87
2022-11-15T08:17:26.340Z,4.03
2022-11-15T08:19:52.850Z,4.03
2022-11-15T08:22:19.381Z,2.83
2022-11-15T08:24:46.029Z,2.97
2022-11-15T08:27:15.948Z,3.27
2022-11-15T08:29:42.670Z,2.30
2022-11-15T08:32:09.152Z,3.37
2022-11-15T08:34:35.719Z,3.37
2022-11-15T08:37:02.183Z,7.87
2022-11-15T08:39:28.662Z,3.90
2022-11-15T08:41:55.149Z,4.40
2022-11-15T08:44:21.623Z,10.10
2022-11-15T08:46:48.215Z,2.50
2022-11-15T08:49:14.708Z,5.43
2022-11-15T08:51:41.208Z,14.17
2022-11-15T08:54:07.668Z,2.27
2022-11-15T08:56:34.149Z,2.60
2022-11-15T08:59:00.643Z,2.80
2022-11-15T09:01:27.164Z,6.90
2022-11-15T09:03:53.746Z,2.03
2022-11-15T09:06:20.236Z,2.40
2022-11-15T09:08:57.310Z,2.20
2022-11-15T09:11:24.182Z,2.27
2022-11-15T09:13:50.666Z,6.50
2022-11-15T09:16:17.210Z,6.77
2022-11-15T09:18:43.678Z,6.80
2022-11-15T09:21:10.160Z,2.13
2022-11-15T09:23:37.478Z,3.20
2022-11-15T09:26:04.165Z,3.70
2022-11-15T09:28:31.413Z,2.30
2022-11-15T09:30:58.652Z,4.83
2022-11-15T09:33:25.160Z,2.50
2022-11-15T09:35:51.721Z,7.43
2022-11-15T09:38:18.203Z,1.63
2022-11-15T09:40:44.732Z,5.13
2022-11-15T09:43:11.288Z,3.80
2022-11-15T09:45:37.800Z,3.63
2022-11-15T09:48:04.325Z,2.23
2022-11-15T09:50:30.859Z,2.37
2022-11-15T09:52:57.431Z,2.43
2022-11-15T09:55:23.937Z,2.60
2022-11-15T09:57:50.472Z,6.30
2022-11-15T10:03:03.461Z,2.40
2022-11-15T10:05:30.030Z,2.60
2022-11-15T10:07:56.948Z,5.97
2022-11-15T10:10:23.475Z,2.53
2022-11-15T10:12:50.077Z,8.53
2022-11-15T10:15:16.818Z,3.73
2022-11-15T10:17:43.337Z,3.50
2022-11-15T10:20:09.832Z,2.10
2022-11-15T10:22:36.473Z,5.37
2022-11-15T10:25:02.965Z,10.40
2022-11-15T10:27:29.454Z,8.43
2022-11-15T10:29:55.978Z,2.13
2022-11-15T10:32:22.532Z,2.17
2022-11-15T10:34:49.066Z,3.17
2022-11-15T10:37:15.569Z,4.30
2022-11-15T10:39:42.121Z,3.10
2022-11-15T10:42:12.897Z,3.77
2022-11-15T10:44:41.791Z,3.67
2022-11-15T10:47:08.308Z,3.00
2022-11-15T10:49:34.871Z,3.03
2022-11-15T10:52:01.432Z,4.60
2022-11-15T10:54:27.946Z,2.20
2022-11-15T10:56:54.452Z,3.73
2022-11-15T10:59:20.987Z,2.50
2022-11-15T11:01:47.901Z,2.07
2022-11-15T11:04:14.477Z,2.43
2022-11-15T11:06:41.001Z,2.80
2022-11-15T11:09:07.719Z,2.00
2022-11-15T11:11:35.291Z,2.73
2022-11-15T11:14:01.801Z,2.97
2022-11-15T11:16:28.332Z,3.33
2022-11-15T11:18:54.865Z,2.10
2022-11-15T11:21:24.496Z,1.90
2022-11-15T11:23:53.763Z,2.87
2022-11-15T11:26:20.305Z,3.30
2022-11-15T11:28:46.848Z,2.33
2022-11-15T11:31:13.345Z,8.80
2022-11-15T11:33:39.868Z,11.13
2022-11-15T11:36:06.389Z,4.60
2022-11-15T11:38:33.628Z,2.07
2022-11-15T11:41:00.526Z,6.70
2022-11-15T11:43:27.021Z,5.40
2022-11-15T11:45:53.499Z,2.43
2022-11-15T11:48:20.215Z,3.00
2022-11-15T11:50:46.763Z,5.37
2022-11-15T11:53:13.284Z,2.10
2022-11-15T11:55:39.806Z,2.37
2022-11-15T11:58:06.385Z,4.37
2022-11-15T12:00:35.080Z,1.67
2022-11-15T12:03:01.685Z,2.53
2022-11-15T12:05:28.787Z,3.83
2022-11-15T12:07:55.400Z,8.10
2022-11-15T12:10:22.044Z,1.20
2022-11-15T12:12:48.615Z,1.97
2022-11-15T12:15:15.258Z,2.77
2022-11-15T12:17:41.759Z,4.97
2022-11-15T12:20:10.242Z,1.93
2022-11-15T12:22:36.739Z,1.93
2022-11-15T12:25:03.268Z,1.83
2022-11-15T12:27:29.768Z,2.60
2022-11-15T12:29:56.267Z,3.50
2022-11-15T12:32:22.787Z,1.60
2022-11-15T12:34:49.266Z,1.40
2022-11-15T12:37:15.795Z,1.70
2022-11-15T12:39:42.276Z,2.77
2022-11-15T12:42:08.756Z,2.20
2022-11-15T12:44:35.275Z,3.73
2022-11-15T12:47:02.077Z,2.37
2022-11-15T12:49:28.625Z,1.87
2022-11-15T12:51:55.182Z,3.20
2022-11-15T12:54:21.695Z,3.50
2022-11-15T12:56:48.176Z,2.03
2022-11-15T12:59:14.672Z,1.53
2022-11-15T13:01:41.266Z,2.30
2022-11-15T13:04:07.770Z,1.30
2022-11-15T13:06:34.257Z,7.70
2022-11-15T13:09:00.906Z,3.10
2022-11-15T13:11:27.441Z,2.47
2022-11-15T13:13:54.044Z,1.47
2022-11-15T13:16:20.557Z,3.80
2022-11-15T13:18:47.060Z,1.63
2022-11-15T13:21:33.528Z,1.37
2022-11-15T13:24:00.044Z,1.37
2022-11-15T13:26:26.550Z,3.53
2022-11-15T13:28:55.609Z,5.27
2022-11-15T13:31:22.282Z,1.50
2022-11-15T13:33:48.788Z,1.50
2022-11-15T13:36:15.295Z,2.93
2022-11-15T13:38:41.773Z,1.87
2022-11-15T13:41:08.269Z,7.27
2022-11-15T13:43:34.766Z,2.63
2022-11-15T13:46:01.271Z,4.07
2022-11-15T13:48:27.803Z,2.17
2022-11-15T13:50:54.307Z,2.03
2022-11-15T13:53:20.848Z,1.50
2022-11-15T13:55:47.339Z,2.87
2022-11-15T13:58:14.605Z,2.67
2022-11-15T14:00:41.582Z,3.60
2022-11-15T14:03:08.108Z,3.40
2022-11-15T14:05:34.640Z,2.20
2022-11-15T14:08:01.212Z,5.90
2022-11-15T14:10:27.840Z,2.70
2022-11-15T14:12:54.410Z,2.77
2022-11-15T14:15:21.005Z,3.43
2022-11-15T14:17:50.216Z,3.47
2022-11-15T14:20:17.064Z,2.77
2022-11-15T14:22:43.555Z,2.13
2022-11-15T14:25:10.071Z,3.50
2022-11-15T14:27:36.614Z,22.50
2022-11-15T14:30:03.145Z,1.40
2022-11-15T14:32:29.708Z,5.30
2022-11-15T14:34:56.267Z,5.00
2022-11-15T14:37:22.885Z,2.03
2022-11-15T14:39:49.394Z,2.70
2022-11-15T14:42:15.906Z,2.67
2022-11-15T14:44:45.944Z,7.13
2022-11-15T14:47:12.908Z,2.33
2022-11-15T14:49:39.470Z,3.93
2022-11-15T14:52:05.961Z,7.03
2022-11-15T14:54:32.793Z,3.13
2022-11-15T14:56:59.393Z,7.90
2022-11-15T14:59:25.911Z,1.70
2022-11-15T15:01:52.429Z,4.20
2022-11-15T15:04:18.947Z,1.83
2022-11-15T15:06:45.533Z,5.57
2022-11-15T15:09:12.187Z,1.93
2022-11-15T15:11:38.722Z,3.67
2022-11-15T15:14:05.336Z,4.40
2022-11-15T15:16:31.943Z,1.63
2022-11-15T15:18:58.596Z,2.80
2022-11-15T15:21:25.182Z,2.53
2022-11-15T15:26:37.125Z,5.07
2022-11-15T15:29:03.645Z,2.43
2022-11-15T15:31:30.149Z,2.20
2022-11-15T15:33:56.846Z,1.90
2022-11-15T15:36:23.393Z,1.83
2022-11-15T15:38:49.911Z,2.67
2022-11-15T15:41:16.503Z,2.07
2022-11-15T15:43:43.684Z,3.83
2022-11-15T15:46:10.338Z,2.17
2022-11-15T15:48:39.102Z,3.10
2022-11-15T15:51:12.957Z,1.87
2022-11-15T15:53:42.138Z,3.10
2022-11-15T15:56:09.032Z,2.10
2022-11-15T15:58:35.765Z,4.17
2022-11-15T16:01:02.505Z,2.30
2022-11-15T16:03:29.226Z,5.30
2022-11-15T16:05:55.776Z,1.33
2022-11-15T16:08:22.272Z,1.73
2022-11-15T16:10:48.820Z,1.63
2022-11-15T16:13:15.387Z,6.53
2022-11-15T16:15:41.946Z,2.40
2022-11-15T16:18:08.987Z,2.23
2022-11-15T16:20:35.527Z,5.23
2022-11-15T16:23:07.287Z,1.50
2022-11-15T16:25:35.406Z,1.80
2022-11-15T16:28:01.874Z,1.43
2022-11-15T16:30:28.489Z,2.90
2022-11-15T16:32:55.105Z,1.70
2022-11-15T16:35:21.668Z,6.80
2022-11-15T16:37:48.271Z,2.90
2022-11-15T16:40:14.787Z,1.53
2022-11-15T16:42:41.269Z,3.10
2022-11-15T16:45:07.753Z,1.63
2022-11-15T16:47:34.242Z,8.67
2022-11-15T16:50:00.750Z,1.47
2022-11-15T16:52:27.334Z,1.90
2022-11-15T16:54:53.821Z,3.60
2022-11-15T16:57:20.297Z,1.83
2022-11-15T16:59:46.883Z,1.57
2022-11-15T17:02:13.563Z,2.30
2022-11-15T17:04:40.099Z,2.00
2022-11-15T17:07:06.810Z,2.10
2022-11-15T17:09:34.222Z,5.60
2022-11-15T17:12:00.703Z,3.73
2022-11-15T17:14:27.391Z,2.37
2022-11-15T17:16:56.852Z,2.80
2022-11-15T17:19:23.359Z,3.10
2022-11-15T17:21:49.856Z,5.07
2022-11-15T17:24:17.148Z,8.23
2022-11-15T17:26:43.672Z,2.07
2022-11-15T17:29:10.211Z,3.07
2022-11-15T17:31:36.753Z,4.50
2022-11-15T17:34:03.337Z,3.30
2022-11-15T17:36:29.897Z,2.40
2022-11-15T17:38:59.769Z,8.90
2022-11-15T17:41:26.699Z,6.20
2022-11-15T17:43:53.311Z,4.30
2022-11-15T17:46:20.535Z,2.30
2022-11-15T17:48:47.041Z,2.27
2022-11-15T17:51:13.605Z,3.00
2022-11-15T17:53:40.070Z,3.67
2022-11-15T17:56:06.571Z,10.03
2022-11-15T17:58:33.335Z,4.30
2022-11-15T18:01:00.077Z,4.83
2022-11-15T18:03:26.640Z,3.97
2022-11-15T18:05:53.260Z,4.83
2022-11-15T18:08:20.898Z,2.00
2022-11-15T18:10:47.383Z,4.43
2022-11-15T18:13:13.865Z,3.50
2022-11-15T18:15:40.558Z,2.33
2022-11-15T18:18:07.042Z,3.53
2022-11-15T18:20:33.529Z,2.63
2022-11-15T18:23:00.030Z,4.80
2022-11-15T18:25:26.493Z,6.30
2022-11-15T18:27:55.307Z,4.60
2022-11-15T18:30:22.343Z,2.20
2022-11-15T18:32:48.952Z,3.60
2022-11-15T18:35:15.421Z,2.83
2022-11-15T18:37:41.970Z,5.40
2022-11-15T18:40:08.535Z,2.60
2022-11-15T18:42:35.015Z,8.00
2022-11-15T18:45:01.780Z,3.93
2022-11-15T18:47:29.695Z,5.47
2022-11-15T18:49:59.499Z,5.70
2022-11-15T18:52:26.061Z,4.10
2022-11-15T18:54:52.578Z,3.67
2022-11-15T18:57:19.059Z,4.10
2022-11-15T18:59:45.563Z,6.90
2022-11-15T19:02:12.852Z,2.83
2022-11-15T19:04:39.434Z,3.30
2022-11-15T19:07:05.978Z,2.97
2022-11-15T19:09:32.631Z,9.57
2022-11-15T19:11:59.127Z,2.87
2022-11-15T19:14:26.147Z,4.53
2022-11-15T19:16:52.921Z,3.27
2022-11-15T19:19:19.547Z,4.73
2022-11-15T19:21:46.114Z,4.60
2022-11-15T19:24:12.637Z,6.60
2022-11-15T19:26:39.178Z,4.10
2022-11-15T19:29:05.756Z,4.23
2022-11-15T19:31:32.249Z,2.50
2022-11-15T19:33:58.743Z,6.70
2022-11-15T19:36:26.838Z,3.47
2022-11-15T19:38:53.325Z,6.30
2022-11-15T19:41:19.910Z,5.30
2022-11-15T19:43:50.750Z,2.33
2022-11-15T19:46:17.307Z,5.33
2022-11-15T19:48:43.857Z,3.40
2022-11-15T19:51:10.353Z,3.43
2022-11-15T19:53:37.463Z,4.23
2022-11-15T19:56:04.415Z,4.03
2022-11-15T19:58:30.997Z,5.93
2022-11-15T20:00:57.770Z,4.57
2022-11-15T20:03:24.287Z,2.20
2022-11-15T20:05:50.826Z,3.60
2022-11-15T20:08:17.361Z,3.07
2022-11-15T20:10:44.154Z,6.60
2022-11-15T20:13:10.698Z,3.93
2022-11-15T20:15:37.373Z,4.30
2022-11-15T20:18:04.227Z,4.80
2022-11-15T20:20:30.694Z,6.87
2022-11-15T20:23:02.276Z,3.67
2022-11-15T20:25:30.136Z,3.57
2022-11-15T20:27:56.641Z,5.77
2022-11-15T20:30:23.192Z,2.70
2022-11-15T20:32:49.711Z,15.20
2022-11-15T20:35:16.233Z,3.57
2022-11-15T20:37:42.752Z,2.40
2022-11-15T20:40:09.262Z,2.60
2022-11-15T20:42:35.851Z,2.40
2022-11-15T20:45:02.362Z,2.10
2022-11-15T20:47:30.256Z,2.03
2022-11-15T20:50:05.786Z,3.50
2022-11-15T20:52:41.832Z,1.97
2022-11-15T20:55:08.336Z,10.17
2022-11-15T20:57:34.851Z,2.83
2022-11-15T21:00:05.611Z,4.03
2022-11-15T21:02:33.253Z,8.60
2022-11-15T21:05:00.267Z,3.80
2022-11-15T21:07:26.828Z,4.83
2022-11-15T21:10:12.331Z,2.47
2022-11-15T21:12:38.846Z,2.90
2022-11-15T21:15:05.404Z,4.60
2022-11-15T21:17:32.465Z,4.90
2022-11-15T21:19:59.061Z,1.80
2022-11-15T21:22:25.530Z,2.80
2022-11-15T21:24:52.163Z,4.83
2022-11-15T21:27:19.380Z,2.70
2022-11-15T21:29:48.615Z,5.23
2022-11-15T21:32:15.118Z,2.73
2022-11-15T21:34:41.631Z,2.50
2022-11-15T21:37:08.583Z,3.67
2022-11-15T21:39:35.104Z,4.50
2022-11-15T21:42:01.590Z,3.43
2022-11-15T21:44:28.071Z,3.63
2022-11-15T21:46:54.541Z,4.37
2022-11-15T21:49:22.279Z,4.20
2022-11-15T21:51:48.770Z,3.13
2022-11-15T21:54:15.262Z,2.70
2022-11-15T21:56:43.140Z,5.10
2022-11-15T21:59:09.635Z,1.83
2022-11-15T22:01:54.533Z,3.30
2022-11-15T22:04:21.460Z,2.60
2022-11-15T22:06:48.045Z,2.30
2022-11-15T22:09:14.621Z,2.33
2022-11-15T22:11:41.422Z,3.63
2022-11-15T22:14:08.364Z,1.63
2022-11-15T22:16:35.513Z,3.77
2022-11-15T22:19:01.985Z,2.20
2022-11-15T22:21:28.467Z,3.00
2022-11-15T22:23:54.939Z,3.10
2022-11-15T22:26:23.820Z,3.90
2022-11-15T22:28:50.743Z,1.97
2022-11-15T22:31:17.268Z,2.10
2022-11-15T22:33:43.823Z,2.20
2022-11-15T22:36:10.356Z,6.70
2022-11-15T22:38:37.213Z,2.40
2022-11-15T22:41:03.982Z,2.70
2022-11-15T22:43:30.475Z,3.00
2022-11-15T22:45:56.984Z,5.10
2022-11-15T22:48:23.479Z,3.30
2022-11-15T22:50:50.758Z,3.00
2022-11-15T22:53:17.372Z,2.30
2022-11-15T22:55:43.865Z,3.43
2022-11-15T22:58:10.513Z,4.33
2022-11-15T23:00:37.066Z,2.90
2022-11-15T23:03:03.623Z,4.40
2022-11-15T23:05:30.135Z,4.40
2022-11-15T23:07:56.631Z,3.73
2022-11-15T23:10:42.025Z,4.60
2022-11-15T23:13:17.442Z,3.73
2022-11-15T23:16:02.879Z,3.27
2022-11-15T23:18:29.454Z,2.90
2022-11-15T23:20:55.939Z,3.23
2022-11-15T23:23:22.467Z,4.43
2022-11-15T23:25:49.012Z,6.03
2022-11-15T23:28:15.484Z,3.50
2022-11-15T23:31:00.808Z,6.63
2022-11-15T23:33:45.869Z,5.37
2022-11-15T23:36:12.394Z,4.77
2022-11-15T23:38:38.947Z,3.90
2022-11-15T23:41:05.442Z,5.93
2022-11-15T23:43:31.943Z,3.40
2022-11-15T23:45:58.453Z,3.30
2022-11-15T23:48:24.974Z,5.53
2022-11-15T23:50:51.516Z,3.20
2022-11-15T23:53:18.070Z,6.40
2022-11-15T23:55:44.611Z,8.53
2022-11-15T23:58:11.127Z,3.40
